createdAt,value
2024-05-09T00:02:14.095Z,101249.00
2024-05-09T00:04:48.036Z,101235.00
2024-05-09T00:07:19.088Z,101239.00
2024-05-09T00:09:50.389Z,101232.00
2024-05-09T00:12:21.576Z,101233.00
2024-05-09T00:14:52.613Z,101230.00
2024-05-09T00:17:23.756Z,101232.00
2024-05-09T00:19:57.676Z,101235.00
2024-05-09T00:22:28.687Z,101236.00
2024-05-09T00:24:59.619Z,101235.00
2024-05-09T00:27:30.540Z,101242.00
2024-05-09T00:30:01.377Z,101236.00
2024-05-09T00:32:32.513Z,101235.00
2024-05-09T00:35:06.277Z,101236.00
2024-05-09T00:37:37.172Z,101244.00
2024-05-09T00:40:18.207Z,101239.00
2024-05-09T00:42:53.398Z,101239.00
2024-05-09T00:45:24.422Z,101239.00
2024-05-09T00:47:55.757Z,101237.00
2024-05-09T00:50:35.842Z,101246.00
2024-05-09T00:53:09.268Z,101242.00
2024-05-09T00:55:42.497Z,101245.00
2024-05-09T00:58:17.755Z,101250.00
2024-05-09T01:00:49.438Z,101252.00
2024-05-09T01:03:21.194Z,101245.00
2024-05-09T01:05:55.558Z,101242.00
2024-05-09T01:08:26.589Z,101241.00
2024-05-09T01:10:57.733Z,101247.00
2024-05-09T01:13:28.826Z,101243.00
2024-05-09T01:15:59.976Z,101255.00
2024-05-09T01:18:31.204Z,101251.00
2024-05-09T01:21:08.280Z,101245.00
2024-05-09T01:23:42.035Z,101254.00
2024-05-09T01:26:13.060Z,101258.00
2024-05-09T01:28:44.014Z,101252.00
2024-05-09T01:31:16.114Z,101261.00
2024-05-09T01:33:47.317Z,101254.00
2024-05-09T01:36:18.317Z,101251.00
2024-05-09T01:38:52.118Z,101250.00
2024-05-09T01:41:23.104Z,101252.00
2024-05-09T01:43:54.177Z,101243.00
2024-05-09T01:46:25.371Z,101250.00
2024-05-09T01:48:56.650Z,101248.00
2024-05-09T01:51:27.759Z,101244.00
2024-05-09T01:54:01.509Z,101255.00
2024-05-09T01:56:32.681Z,101251.00
2024-05-09T01:59:04.949Z,101252.00
2024-05-09T02:01:55.634Z,101256.00
2024-05-09T02:04:27.250Z,101253.00
2024-05-09T02:06:58.371Z,101256.00
2024-05-09T02:09:32.146Z,101251.00
2024-05-09T02:12:03.219Z,101248.00
2024-05-09T02:14:34.333Z,101253.00
2024-05-09T02:17:05.399Z,101252.00
2024-05-09T02:19:36.739Z,101256.00
2024-05-09T02:22:08.219Z,101259.00
2024-05-09T02:24:42.015Z,101264.00
2024-05-09T02:27:12.972Z,101268.00
2024-05-09T02:29:44.055Z,101260.00
2024-05-09T02:32:15.256Z,101256.00
2024-05-09T02:34:46.540Z,101256.00
2024-05-09T02:37:17.790Z,101245.00
2024-05-09T02:39:48.928Z,101253.00
2024-05-09T02:42:20.167Z,101251.00
2024-05-09T02:44:48.518Z,101249.00
2024-05-09T02:47:19.911Z,101246.00
2024-05-09T02:49:48.326Z,101244.00
2024-05-09T02:52:22.471Z,101242.00
2024-05-09T02:54:53.550Z,101250.00
2024-05-09T02:57:24.429Z,101255.00
2024-05-09T02:59:52.740Z,101243.00
2024-05-09T03:02:23.767Z,101243.00
2024-05-09T03:04:52.395Z,101249.00
2024-05-09T03:07:23.627Z,101250.00
2024-05-09T03:09:54.527Z,101250.00
2024-05-09T03:12:25.569Z,101252.00
2024-05-09T03:14:53.956Z,101244.00
2024-05-09T03:17:25.358Z,101246.00
2024-05-09T03:19:53.805Z,101247.00
2024-05-09T03:22:24.782Z,101250.00
2024-05-09T03:24:56.065Z,101249.00
2024-05-09T03:27:27.162Z,101243.00
2024-05-09T03:29:55.573Z,101248.00
2024-05-09T03:32:26.894Z,101251.00
2024-05-09T03:34:55.388Z,101254.00
2024-05-09T03:37:26.407Z,101242.00
2024-05-09T03:40:00.256Z,101249.00
2024-05-09T03:42:31.421Z,101249.00
2024-05-09T03:45:02.428Z,101239.00
2024-05-09T03:47:32.538Z,101250.00
2024-05-09T03:50:05.627Z,101250.00
2024-05-09T03:52:34.249Z,101251.00
2024-05-09T03:55:08.377Z,101252.00
2024-05-09T03:57:36.699Z,101247.00
2024-05-09T04:00:14.845Z,101251.00
2024-05-09T04:05:38.376Z,101266.00
2024-05-09T04:08:07.787Z,101264.00
2024-05-09T04:10:41.502Z,101256.00
2024-05-09T04:13:11.795Z,101256.00
2024-05-09T04:15:42.939Z,101264.00
2024-05-09T04:18:12.330Z,101256.00
2024-05-09T04:20:43.647Z,101265.00
2024-05-09T04:23:13.737Z,101263.00
2024-05-09T04:25:48.454Z,101262.00
2024-05-09T04:28:16.857Z,101265.00
2024-05-09T04:30:47.830Z,101269.00
2024-05-09T04:33:16.360Z,101273.00
2024-05-09T04:35:49.466Z,101273.00
2024-05-09T04:38:18.250Z,101282.00
2024-05-09T04:40:51.868Z,101271.00
2024-05-09T04:43:21.362Z,101286.00
2024-05-09T04:45:52.284Z,101289.00
2024-05-09T04:48:20.726Z,101293.00
2024-05-09T04:50:51.764Z,101294.00
2024-05-09T04:53:20.247Z,101296.00
2024-05-09T04:55:54.329Z,101296.00
2024-05-09T04:58:22.625Z,101295.00
2024-05-09T05:00:53.582Z,101306.00
2024-05-09T05:03:22.233Z,101304.00
2024-05-09T05:05:53.418Z,101311.00
2024-05-09T05:08:21.792Z,101305.00
2024-05-09T05:10:55.576Z,101314.00
2024-05-09T05:13:24.712Z,101318.00
2024-05-09T05:15:58.308Z,101318.00
2024-05-09T05:18:28.265Z,101318.00
2024-05-09T05:21:00.139Z,101315.00
2024-05-09T05:23:28.634Z,101310.00
2024-05-09T05:26:02.288Z,101319.00
2024-05-09T05:28:37.974Z,101311.00
2024-05-09T05:31:09.174Z,101316.00
2024-05-09T05:33:37.745Z,101311.00
2024-05-09T05:36:11.003Z,101319.00
2024-05-09T05:38:41.983Z,101320.00
2024-05-09T05:41:13.083Z,101313.00
2024-05-09T05:43:44.150Z,101324.00
2024-05-09T05:46:12.538Z,101322.00
2024-05-09T05:48:43.491Z,101332.00
2024-05-09T05:51:11.944Z,101328.00
2024-05-09T05:53:43.043Z,101337.00
2024-05-09T05:56:14.063Z,101327.00
2024-05-09T05:58:45.117Z,101337.00
2024-05-09T06:01:13.682Z,101336.00
2024-05-09T06:03:44.849Z,101337.00
2024-05-09T06:06:15.036Z,101330.00
2024-05-09T06:08:46.058Z,101337.00
2024-05-09T06:11:17.457Z,101333.00
2024-05-09T06:13:48.680Z,101343.00
2024-05-09T06:16:17.075Z,101339.00
2024-05-09T06:18:48.156Z,101335.00
2024-05-09T06:21:18.375Z,101339.00
2024-05-09T06:23:50.023Z,101343.00
2024-05-09T06:26:21.153Z,101351.00
2024-05-09T06:28:52.212Z,101349.00
2024-05-09T06:31:20.555Z,101337.00
2024-05-09T06:33:51.606Z,101347.00
2024-05-09T06:36:20.256Z,101349.00
2024-05-09T06:38:51.232Z,101345.00
2024-05-09T06:41:22.195Z,101344.00
2024-05-09T06:43:53.356Z,101339.00
2024-05-09T06:46:21.716Z,101349.00
2024-05-09T06:48:53.214Z,101348.00
2024-05-09T06:51:21.969Z,101348.00
2024-05-09T06:53:52.973Z,101346.00
2024-05-09T06:56:23.932Z,101343.00
2024-05-09T06:58:54.919Z,101350.00
2024-05-09T07:01:23.345Z,101344.00
2024-05-09T07:03:54.347Z,101351.00
2024-05-09T07:06:22.740Z,101343.00
2024-05-09T07:08:53.644Z,101352.00
2024-05-09T07:11:24.768Z,101348.00
2024-05-09T07:13:55.798Z,101343.00
2024-05-09T07:16:24.107Z,101351.00
2024-05-09T07:18:55.317Z,101341.00
2024-05-09T07:21:23.909Z,101360.00
2024-05-09T07:23:54.980Z,101356.00
2024-05-09T07:26:25.906Z,101342.00
2024-05-09T07:28:56.934Z,101342.00
2024-05-09T07:31:28.143Z,101355.00
2024-05-09T07:34:00.689Z,101335.00
2024-05-09T07:36:29.052Z,101340.00
2024-05-09T07:39:00.882Z,101343.00
2024-05-09T07:41:31.870Z,101336.00
2024-05-09T07:44:02.863Z,101341.00
2024-05-09T07:47:37.096Z,101343.00
2024-05-09T07:53:21.556Z,101337.00
2024-05-09T07:54:44.547Z,101334.00
2024-05-09T07:57:15.568Z,101321.00
2024-05-09T07:59:46.548Z,101328.00
2024-05-09T08:02:15.073Z,101318.00
2024-05-09T08:04:46.125Z,101324.00
2024-05-09T08:07:14.546Z,101324.00
2024-05-09T08:09:45.580Z,101319.00
2024-05-09T08:12:17.244Z,101318.00
2024-05-09T08:14:48.111Z,101316.00
2024-05-09T08:17:16.485Z,101314.00
2024-05-09T08:19:47.930Z,101316.00
2024-05-09T08:22:16.566Z,101306.00
2024-05-09T08:24:47.770Z,101311.00
2024-05-09T08:27:19.385Z,101318.00
2024-05-09T08:29:50.325Z,101306.00
2024-05-09T08:32:18.663Z,101310.00
2024-05-09T08:34:49.654Z,101310.00
2024-05-09T08:37:22.400Z,101306.00
2024-05-09T08:39:55.800Z,101313.00
2024-05-09T08:42:29.567Z,101303.00
2024-05-09T08:45:00.741Z,101304.00
2024-05-09T08:47:32.216Z,101310.00
2024-05-09T08:50:08.580Z,101309.00
2024-05-09T08:52:37.288Z,101313.00
2024-05-09T08:55:08.891Z,101312.00
2024-05-09T08:57:41.388Z,101306.00
2024-05-09T09:00:18.010Z,101313.00
2024-05-09T09:02:51.410Z,101311.00
2024-05-09T09:05:24.833Z,101295.00
2024-05-09T09:07:53.280Z,101306.00
2024-05-09T09:10:31.877Z,101305.00
2024-05-09T09:13:07.289Z,101306.00
2024-05-09T09:15:49.113Z,101308.00
2024-05-09T09:18:18.457Z,101299.00
2024-05-09T09:20:50.293Z,101299.00
2024-05-09T09:23:18.671Z,101301.00
2024-05-09T09:25:49.587Z,101294.00
2024-05-09T09:28:24.170Z,101290.00
2024-05-09T09:30:55.162Z,101286.00
2024-05-09T09:33:23.469Z,101284.00
2024-05-09T09:35:54.378Z,101294.00
2024-05-09T09:38:24.657Z,101297.00
2024-05-09T09:40:55.646Z,101297.00
2024-05-09T09:43:28.292Z,101306.00
2024-05-09T09:46:00.608Z,101299.00
2024-05-09T09:48:30.599Z,101297.00
2024-05-09T09:51:02.695Z,101306.00
2024-05-09T09:53:32.308Z,101295.00
2024-05-09T09:56:03.805Z,101294.00
2024-05-09T09:58:36.843Z,101295.00
2024-05-09T10:01:08.181Z,101298.00
2024-05-09T10:03:36.862Z,101302.00
2024-05-09T10:06:10.164Z,101296.00
2024-05-09T10:08:39.288Z,101297.00
2024-05-09T10:11:10.567Z,101298.00
2024-05-09T10:13:42.654Z,101292.00
2024-05-09T10:16:14.816Z,101282.00
2024-05-09T10:18:43.529Z,101280.00
2024-05-09T10:21:21.338Z,101285.00
2024-05-09T10:24:00.817Z,101283.00
2024-05-09T10:26:35.785Z,101293.00
2024-05-09T10:29:16.039Z,101295.00
2024-05-09T10:31:48.123Z,101290.00
2024-05-09T10:34:20.930Z,101293.00
2024-05-09T10:36:56.547Z,101282.00
2024-05-09T10:39:26.380Z,101284.00
2024-05-09T10:41:57.312Z,101278.00
2024-05-09T10:44:28.258Z,101292.00
2024-05-09T10:46:59.330Z,101281.00
2024-05-09T10:49:27.975Z,101271.00
2024-05-09T10:51:59.070Z,101272.00
2024-05-09T10:54:36.760Z,101268.00
2024-05-09T10:57:08.229Z,101269.00
2024-05-09T10:59:39.856Z,101265.00
2024-05-09T11:02:11.622Z,101264.00
2024-05-09T11:04:40.816Z,101259.00
2024-05-09T11:07:13.981Z,101260.00
2024-05-09T11:09:43.314Z,101264.00
2024-05-09T11:12:14.460Z,101259.00
2024-05-09T11:14:54.124Z,101254.00
2024-05-09T11:17:25.143Z,101251.00
2024-05-09T11:19:53.700Z,101250.00
2024-05-09T11:22:25.271Z,101245.00
2024-05-09T11:24:54.871Z,101242.00
2024-05-09T11:27:26.706Z,101246.00
2024-05-09T11:29:58.703Z,101247.00
2024-05-09T11:32:33.518Z,101239.00
2024-05-09T11:35:02.524Z,101237.00
2024-05-09T11:37:36.789Z,101245.00
2024-05-09T11:40:11.463Z,101236.00
2024-05-09T11:42:47.705Z,101238.00
2024-05-09T11:45:19.690Z,101222.00
2024-05-09T11:47:50.921Z,101228.00
2024-05-09T11:50:27.006Z,101218.00
2024-05-09T11:53:01.264Z,101219.00
2024-05-09T11:55:29.634Z,101215.00
2024-05-09T11:58:00.778Z,101216.00
2024-05-09T12:00:36.804Z,101221.00
2024-05-09T12:03:09.216Z,101212.00
2024-05-09T12:05:37.628Z,101218.00
2024-05-09T12:08:09.302Z,101216.00
2024-05-09T12:10:37.887Z,101212.00
2024-05-09T12:13:09.202Z,101215.00
2024-05-09T12:15:40.247Z,101213.00
2024-05-09T12:18:11.346Z,101211.00
2024-05-09T12:20:40.329Z,101207.00
2024-05-09T12:23:11.702Z,101208.00
2024-05-09T12:25:40.522Z,101203.00
2024-05-09T12:28:11.741Z,101197.00
2024-05-09T12:30:42.930Z,101190.00
2024-05-09T12:33:14.503Z,101199.00
2024-05-09T12:35:46.417Z,101187.00
2024-05-09T12:38:18.547Z,101178.00
2024-05-09T12:40:47.094Z,101188.00
2024-05-09T12:43:18.199Z,101178.00
2024-05-09T12:45:50.358Z,101174.00
2024-05-09T12:48:21.427Z,101175.00
2024-05-09T12:50:49.816Z,101172.00
2024-05-09T12:53:20.782Z,101170.00
2024-05-09T12:55:56.565Z,101174.00
2024-05-09T12:58:31.259Z,101162.00
2024-05-09T13:01:02.288Z,101162.00
2024-05-09T13:03:33.627Z,101154.00
2024-05-09T13:06:02.096Z,101156.00
2024-05-09T13:08:33.472Z,101147.00
2024-05-09T13:11:02.023Z,101142.00
2024-05-09T13:13:32.943Z,101143.00
2024-05-09T13:16:04.233Z,101142.00
2024-05-09T13:18:36.465Z,101130.00
2024-05-09T13:21:05.070Z,101128.00
2024-05-09T13:23:37.880Z,101125.00
2024-05-09T13:26:06.437Z,101132.00
2024-05-09T13:28:37.491Z,101130.00
2024-05-09T13:31:08.510Z,101127.00
2024-05-09T13:33:39.625Z,101137.00
2024-05-09T13:36:08.717Z,101125.00
2024-05-09T13:38:39.663Z,101125.00
2024-05-09T13:41:08.577Z,101116.00
2024-05-09T13:43:39.490Z,101120.00
2024-05-09T13:46:10.640Z,101120.00
2024-05-09T13:48:42.202Z,101115.00
2024-05-09T13:51:10.747Z,101104.00
2024-05-09T13:53:41.760Z,101115.00
2024-05-09T13:56:10.189Z,101117.00
2024-05-09T13:58:42.165Z,101109.00
2024-05-09T14:01:13.141Z,101085.00
2024-05-09T14:03:44.354Z,101100.00
2024-05-09T14:06:13.328Z,101094.00
2024-05-09T14:08:44.549Z,101091.00
2024-05-09T14:11:12.883Z,101092.00
2024-05-09T14:13:43.923Z,101091.00
2024-05-09T14:16:15.224Z,101090.00
2024-05-09T14:18:46.323Z,101091.00
2024-05-09T14:21:14.702Z,101085.00
2024-05-09T14:23:45.694Z,101090.00
2024-05-09T14:26:14.256Z,101080.00
2024-05-09T14:28:45.189Z,101077.00
2024-05-09T14:31:16.276Z,101072.00
2024-05-09T14:33:47.446Z,101068.00
2024-05-09T14:36:15.870Z,101064.00
2024-05-09T14:38:46.762Z,101055.00
2024-05-09T14:41:15.118Z,101054.00
2024-05-09T14:43:46.069Z,101051.00
2024-05-09T14:46:17.279Z,101055.00
2024-05-09T14:48:48.535Z,101053.00
2024-05-09T14:51:17.509Z,101053.00
2024-05-09T14:53:48.504Z,101049.00
2024-05-09T14:56:16.893Z,101043.00
2024-05-09T14:58:47.882Z,101048.00
2024-05-09T15:01:20.604Z,101044.00
2024-05-09T15:03:51.894Z,101039.00
2024-05-09T15:06:20.361Z,101041.00
2024-05-09T15:08:59.520Z,101029.00
2024-05-09T15:11:27.822Z,101020.00
2024-05-09T15:13:58.782Z,101025.00
2024-05-09T15:16:30.145Z,101020.00
2024-05-09T15:19:01.562Z,101025.00
2024-05-09T15:21:29.944Z,101023.00
2024-05-09T15:24:00.922Z,101025.00
2024-05-09T15:26:29.279Z,101023.00
2024-05-09T15:29:00.205Z,101017.00
2024-05-09T15:31:31.427Z,101018.00
2024-05-09T15:34:02.545Z,101016.00
2024-05-09T15:36:31.071Z,101011.00
2024-05-09T15:39:01.990Z,101017.00
2024-05-09T15:41:30.288Z,101012.00
2024-05-09T15:44:01.168Z,101005.00
2024-05-09T15:46:34.871Z,101001.00
2024-05-09T15:49:03.581Z,100999.00
2024-05-09T15:51:34.878Z,100994.00
2024-05-09T15:54:03.195Z,101001.00
2024-05-09T15:56:34.494Z,100992.00
2024-05-09T15:59:02.931Z,100994.00
2024-05-09T16:01:36.589Z,100994.00
2024-05-09T16:04:05.151Z,100993.00
2024-05-09T16:06:37.491Z,100990.00
2024-05-09T16:09:06.508Z,100988.00
2024-05-09T16:11:37.473Z,100986.00
2024-05-09T16:14:05.834Z,100980.00
2024-05-09T16:16:39.612Z,100972.00
2024-05-09T16:19:09.778Z,100978.00
2024-05-09T16:21:40.743Z,100977.00
2024-05-09T16:24:09.058Z,100981.00
2024-05-09T16:26:40.033Z,100973.00
2024-05-09T16:29:08.892Z,100975.00
2024-05-09T16:31:42.454Z,100974.00
2024-05-09T16:34:10.780Z,100973.00
2024-05-09T16:36:43.870Z,100972.00
2024-05-09T16:39:12.319Z,100972.00
2024-05-09T16:41:43.257Z,100966.00
2024-05-09T16:44:11.541Z,100969.00
2024-05-09T16:46:45.201Z,100971.00
2024-05-09T16:49:13.564Z,100972.00
2024-05-09T16:51:44.562Z,100975.00
2024-05-09T16:54:12.888Z,100976.00
2024-05-09T16:56:43.822Z,100974.00
2024-05-09T16:59:12.492Z,100972.00
2024-05-09T17:01:46.065Z,100977.00
2024-05-09T17:04:14.704Z,100974.00
2024-05-09T17:06:46.036Z,100977.00
2024-05-09T17:09:15.741Z,100970.00
2024-05-09T17:11:49.267Z,100970.00
2024-05-09T17:14:20.237Z,100970.00
2024-05-09T17:16:54.251Z,100968.00
2024-05-09T17:19:22.761Z,100967.00
2024-05-09T17:21:53.796Z,100974.00
2024-05-09T17:24:22.167Z,100963.00
2024-05-09T17:26:53.351Z,100966.00
2024-05-09T17:29:21.788Z,100964.00
2024-05-09T17:31:55.342Z,100961.00
2024-05-09T17:34:23.747Z,100962.00
2024-05-09T17:36:54.924Z,100961.00
2024-05-09T17:39:23.241Z,100957.00
2024-05-09T17:41:54.115Z,100965.00
2024-05-09T17:44:22.440Z,100965.00
2024-05-09T17:46:56.066Z,100960.00
2024-05-09T17:49:24.694Z,100966.00
2024-05-09T17:51:56.014Z,100963.00
2024-05-09T17:54:24.306Z,100962.00
2024-05-09T17:56:55.319Z,100956.00
2024-05-09T17:59:23.660Z,100966.00
2024-05-09T18:01:57.311Z,100964.00
2024-05-09T18:04:25.716Z,100960.00
2024-05-09T18:06:56.849Z,100961.00
2024-05-09T18:09:25.196Z,100961.00
2024-05-09T18:11:56.120Z,100957.00
2024-05-09T18:14:24.444Z,100952.00
2024-05-09T18:16:58.121Z,100954.00
2024-05-09T18:19:26.625Z,100958.00
2024-05-09T18:21:57.920Z,100962.00
2024-05-09T18:24:26.197Z,100956.00
2024-05-09T18:26:57.162Z,100963.00
2024-05-09T18:29:25.587Z,100953.00
2024-05-09T18:31:59.228Z,100954.00
2024-05-09T18:34:27.712Z,100947.00
2024-05-09T18:37:00.903Z,100959.00
2024-05-09T18:39:30.493Z,100947.00
2024-05-09T18:42:02.025Z,100949.00
2024-05-09T18:44:31.322Z,100957.00
2024-05-09T18:47:05.094Z,100958.00
2024-05-09T18:49:33.571Z,100954.00
2024-05-09T18:52:04.646Z,100964.00
2024-05-09T18:54:32.959Z,100968.00
2024-05-09T18:57:03.885Z,100967.00
2024-05-09T18:59:32.154Z,100969.00
2024-05-09T19:02:05.955Z,100974.00
2024-05-09T19:04:34.578Z,100979.00
2024-05-09T19:07:06.489Z,100984.00
2024-05-09T19:09:35.413Z,100976.00
2024-05-09T19:12:06.615Z,100977.00
2024-05-09T19:14:34.907Z,100984.00
2024-05-09T19:17:09.397Z,100975.00
2024-05-09T19:19:37.732Z,100978.00
2024-05-09T19:22:10.434Z,100979.00
2024-05-09T19:24:38.907Z,100986.00
2024-05-09T19:27:09.869Z,100983.00
2024-05-09T19:29:38.194Z,100984.00
2024-05-09T19:32:11.816Z,100985.00
2024-05-09T19:34:40.105Z,100991.00
2024-05-09T19:37:11.196Z,100985.00
2024-05-09T19:39:39.633Z,100985.00
2024-05-09T19:42:10.564Z,100989.00
2024-05-09T19:44:38.842Z,100991.00
2024-05-09T19:47:12.550Z,100984.00
2024-05-09T19:49:40.914Z,100992.00
2024-05-09T19:52:12.012Z,100989.00
2024-05-09T19:54:40.358Z,100986.00
2024-05-09T19:57:11.451Z,100994.00
2024-05-09T19:59:39.790Z,100999.00
2024-05-09T20:02:13.492Z,100994.00
2024-05-09T20:04:45.661Z,100992.00
2024-05-09T20:07:16.867Z,100993.00
2024-05-09T20:09:45.238Z,100985.00
2024-05-09T20:12:16.310Z,100994.00
2024-05-09T20:14:44.577Z,100993.00
2024-05-09T20:17:18.143Z,100995.00
2024-05-09T20:19:46.552Z,100993.00
2024-05-09T20:22:17.623Z,101000.00
2024-05-09T20:24:46.016Z,100990.00
2024-05-09T20:27:16.899Z,100991.00
2024-05-09T20:29:45.233Z,100999.00
2024-05-09T20:32:18.842Z,100993.00
2024-05-09T20:34:50.461Z,100999.00
2024-05-09T20:37:21.975Z,100999.00
2024-05-09T20:39:50.474Z,100996.00
2024-05-09T20:42:21.428Z,101003.00
2024-05-09T20:44:49.824Z,101006.00
2024-05-09T20:47:23.449Z,101002.00
2024-05-09T20:49:51.842Z,101014.00
2024-05-09T20:52:22.842Z,100999.00
2024-05-09T20:54:51.196Z,101005.00
2024-05-09T20:57:22.130Z,101011.00
2024-05-09T20:59:50.406Z,101003.00
2024-05-09T21:02:24.154Z,101003.00
2024-05-09T21:04:52.695Z,101003.00
2024-05-09T21:07:23.668Z,101009.00
2024-05-09T21:09:52.102Z,101007.00
2024-05-09T21:12:23.068Z,101001.00
2024-05-09T21:14:51.522Z,101003.00
2024-05-09T21:17:25.289Z,101019.00
2024-05-09T21:19:53.999Z,101004.00
2024-05-09T21:22:25.042Z,101012.00
2024-05-09T21:24:53.399Z,101016.00
2024-05-09T21:27:24.578Z,101013.00
2024-05-09T21:29:53.038Z,101015.00
2024-05-09T21:32:26.679Z,101022.00
2024-05-09T21:34:55.063Z,101017.00
2024-05-09T21:37:26.094Z,101023.00
2024-05-09T21:39:54.436Z,101021.00
2024-05-09T21:42:25.418Z,101021.00
2024-05-09T21:44:53.691Z,101023.00
2024-05-09T21:47:27.420Z,101016.00
2024-05-09T21:49:55.887Z,101029.00
2024-05-09T21:52:27.341Z,101017.00
2024-05-09T21:54:55.737Z,101013.00
2024-05-09T21:57:26.686Z,101012.00
2024-05-09T21:59:54.943Z,101013.00
2024-05-09T22:02:28.782Z,101008.00
2024-05-09T22:04:57.434Z,101013.00
2024-05-09T22:07:28.402Z,101011.00
2024-05-09T22:09:56.759Z,101014.00
2024-05-09T22:12:27.730Z,101012.00
2024-05-09T22:14:56.071Z,101007.00
2024-05-09T22:17:29.707Z,101008.00
2024-05-09T22:20:00.763Z,101006.00
2024-05-09T22:22:31.670Z,101010.00
2024-05-09T22:25:00.327Z,101007.00
2024-05-09T22:27:31.379Z,101002.00
2024-05-09T22:29:59.668Z,100996.00
2024-05-09T22:32:33.304Z,101007.00
2024-05-09T22:35:01.699Z,101005.00
2024-05-09T22:37:32.718Z,101003.00
2024-05-09T22:40:03.137Z,101006.00
2024-05-09T22:42:35.006Z,101010.00
2024-05-09T22:45:03.301Z,101005.00
2024-05-09T22:47:37.226Z,101014.00
2024-05-09T22:50:08.956Z,101008.00
2024-05-09T22:52:43.642Z,101010.00
2024-05-09T22:55:12.099Z,101003.00
2024-05-09T22:57:43.066Z,100999.00
2024-05-09T23:00:15.748Z,100996.00
2024-05-09T23:02:49.723Z,100994.00
2024-05-09T23:05:20.815Z,101004.00
2024-05-09T23:07:49.192Z,101002.00
2024-05-09T23:10:27.729Z,101004.00
2024-05-09T23:13:00.878Z,101002.00
2024-05-09T23:15:32.047Z,100994.00
2024-05-09T23:18:03.500Z,100999.00
2024-05-09T23:20:38.487Z,100985.00
2024-05-09T23:23:08.771Z,100992.00
2024-05-09T23:25:41.118Z,100989.00
2024-05-09T23:28:09.716Z,100992.00
2024-05-09T23:30:41.821Z,100985.00
2024-05-09T23:33:14.430Z,100980.00
2024-05-09T23:35:46.281Z,100981.00
2024-05-09T23:38:14.605Z,100982.00
2024-05-09T23:40:45.611Z,100979.00
2024-05-09T23:43:14.225Z,100977.00
2024-05-09T23:45:45.568Z,100977.00
2024-05-09T23:48:16.718Z,100974.00
2024-05-09T23:50:47.692Z,100972.00
2024-05-09T23:53:16.031Z,100981.00
2024-05-09T23:55:46.959Z,100970.00
2024-05-09T23:58:15.325Z,100973.00
